sensor_id;sensor_type;location;lat;lon;timestamp;P1;durP1;ratioP1;P2;durP2;ratioP2
10661;SDS011;5379;51.034;7.006;2022-09-14T00:01:00;11.00;;;8.70;;
10661;SDS011;5379;51.034;7.006;2022-09-14T00:03:34;9.97;;;7.80;;
10661;SDS011;5379;51.034;7.006;2022-09-14T00:06:02;9.00;;;7.97;;
10661;SDS011;5379;51.034;7.006;2022-09-14T00:08:30;8.07;;;7.27;;
10661;SDS011;5379;51.034;7.006;2022-09-14T00:10:57;9.60;;;7.97;;
10661;SDS011;5379;51.034;7.006;2022-09-14T00:13:24;8.87;;;7.83;;
10661;SDS011;5379;51.034;7.006;2022-09-14T00:15:51;12.83;;;8.50;;
10661;SDS011;5379;51.034;7.006;2022-09-14T00:18:18;13.97;;;8.80;;
10661;SDS011;5379;51.034;7.006;2022-09-14T00:20:47;9.97;;;8.57;;
10661;SDS011;5379;51.034;7.006;2022-09-14T00:23:14;9.27;;;8.37;;
10661;SDS011;5379;51.034;7.006;2022-09-14T00:25:40;10.23;;;8.93;;
10661;SDS011;5379;51.034;7.006;2022-09-14T00:28:07;11.33;;;9.73;;
10661;SDS011;5379;51.034;7.006;2022-09-14T00:30:39;12.83;;;11.13;;
10661;SDS011;5379;51.034;7.006;2022-09-14T00:33:07;12.27;;;10.93;;
10661;SDS011;5379;51.034;7.006;2022-09-14T00:35:34;11.60;;;10.33;;
10661;SDS011;5379;51.034;7.006;2022-09-14T00:38:03;16.50;;;11.87;;
10661;SDS011;5379;51.034;7.006;2022-09-14T00:40:32;13.30;;;11.50;;
10661;SDS011;5379;51.034;7.006;2022-09-14T00:42:59;13.30;;;11.73;;
10661;SDS011;5379;51.034;7.006;2022-09-14T00:45:27;13.37;;;12.03;;
10661;SDS011;5379;51.034;7.006;2022-09-14T00:47:54;17.13;;;13.50;;
10661;SDS011;5379;51.034;7.006;2022-09-14T00:50:21;14.67;;;13.03;;
10661;SDS011;5379;51.034;7.006;2022-09-14T00:52:48;17.63;;;12.93;;
10661;SDS011;5379;51.034;7.006;2022-09-14T00:55:18;15.30;;;13.67;;
10661;SDS011;5379;51.034;7.006;2022-09-14T00:57:48;16.50;;;13.60;;
10661;SDS011;5379;51.034;7.006;2022-09-14T01:00:19;17.37;;;14.40;;
10661;SDS011;5379;51.034;7.006;2022-09-14T01:02:48;20.67;;;14.03;;
10661;SDS011;5379;51.034;7.006;2022-09-14T01:05:15;19.67;;;14.10;;
10661;SDS011;5379;51.034;7.006;2022-09-14T01:07:49;14.70;;;13.10;;
10661;SDS011;5379;51.034;7.006;2022-09-14T01:10:29;17.93;;;13.77;;
10661;SDS011;5379;51.034;7.006;2022-09-14T01:13:07;18.07;;;14.67;;
10661;SDS011;5379;51.034;7.006;2022-09-14T01:15:44;15.90;;;13.53;;
10661;SDS011;5379;51.034;7.006;2022-09-14T01:18:20;21.73;;;15.73;;
10661;SDS011;5379;51.034;7.006;2022-09-14T01:20:55;20.00;;;14.53;;
10661;SDS011;5379;51.034;7.006;2022-09-14T01:23:27;18.17;;;15.03;;
10661;SDS011;5379;51.034;7.006;2022-09-14T01:29:18;18.07;;;14.50;;
10661;SDS011;5379;51.034;7.006;2022-09-14T01:31:52;19.30;;;16.37;;
10661;SDS011;5379;51.034;7.006;2022-09-14T01:34:25;21.53;;;18.10;;
10661;SDS011;5379;51.034;7.006;2022-09-14T01:36:57;25.03;;;19.13;;
10661;SDS011;5379;51.034;7.006;2022-09-14T01:39:28;21.70;;;17.87;;
10661;SDS011;5379;51.034;7.006;2022-09-14T01:41:57;22.33;;;18.93;;
10661;SDS011;5379;51.034;7.006;2022-09-14T01:44:29;19.90;;;17.83;;
10661;SDS011;5379;51.034;7.006;2022-09-14T01:47:00;22.63;;;17.17;;
10661;SDS011;5379;51.034;7.006;2022-09-14T01:49:33;24.97;;;18.10;;
10661;SDS011;5379;51.034;7.006;2022-09-14T01:52:04;20.33;;;18.07;;
10661;SDS011;5379;51.034;7.006;2022-09-14T01:54:38;27.67;;;17.80;;
10661;SDS011;5379;51.034;7.006;2022-09-14T01:57:09;24.80;;;19.50;;
10661;SDS011;5379;51.034;7.006;2022-09-14T01:59:48;23.63;;;18.57;;
10661;SDS011;5379;51.034;7.006;2022-09-14T02:02:19;22.07;;;18.00;;
10661;SDS011;5379;51.034;7.006;2022-09-14T02:04:51;23.83;;;18.40;;
10661;SDS011;5379;51.034;7.006;2022-09-14T02:07:22;21.60;;;18.43;;
10661;SDS011;5379;51.034;7.006;2022-09-14T02:09:50;25.97;;;19.50;;
10661;SDS011;5379;51.034;7.006;2022-09-14T02:12:20;22.93;;;18.83;;
10661;SDS011;5379;51.034;7.006;2022-09-14T02:14:49;24.17;;;19.00;;
10661;SDS011;5379;51.034;7.006;2022-09-14T02:17:17;23.93;;;19.33;;
10661;SDS011;5379;51.034;7.006;2022-09-14T02:19:46;24.50;;;19.90;;
10661;SDS011;5379;51.034;7.006;2022-09-14T02:22:17;25.00;;;19.30;;
10661;SDS011;5379;51.034;7.006;2022-09-14T02:24:44;28.07;;;21.30;;
10661;SDS011;5379;51.034;7.006;2022-09-14T02:27:11;26.13;;;21.07;;
10661;SDS011;5379;51.034;7.006;2022-09-14T02:29:38;25.33;;;21.47;;
10661;SDS011;5379;51.034;7.006;2022-09-14T02:32:11;26.63;;;21.30;;
10661;SDS011;5379;51.034;7.006;2022-09-14T02:34:49;26.00;;;21.97;;
10661;SDS011;5379;51.034;7.006;2022-09-14T02:37:23;26.83;;;21.80;;
10661;SDS011;5379;51.034;7.006;2022-09-14T02:40:04;25.83;;;21.53;;
10661;SDS011;5379;51.034;7.006;2022-09-14T02:42:43;24.70;;;21.20;;
10661;SDS011;5379;51.034;7.006;2022-09-14T02:45:26;24.60;;;20.47;;
10661;SDS011;5379;51.034;7.006;2022-09-14T02:48:01;28.97;;;22.70;;
10661;SDS011;5379;51.034;7.006;2022-09-14T02:50:34;28.13;;;21.73;;
10661;SDS011;5379;51.034;7.006;2022-09-14T02:53:06;28.97;;;23.43;;
10661;SDS011;5379;51.034;7.006;2022-09-14T02:55:39;26.30;;;21.73;;
10661;SDS011;5379;51.034;7.006;2022-09-14T02:58:11;27.90;;;24.03;;
10661;SDS011;5379;51.034;7.006;2022-09-14T03:00:39;30.87;;;25.60;;
10661;SDS011;5379;51.034;7.006;2022-09-14T03:03:10;36.70;;;27.87;;
10661;SDS011;5379;51.034;7.006;2022-09-14T03:05:38;34.47;;;26.47;;
10661;SDS011;5379;51.034;7.006;2022-09-14T03:08:06;33.40;;;26.90;;
10661;SDS011;5379;51.034;7.006;2022-09-14T03:10:35;34.03;;;28.37;;
10661;SDS011;5379;51.034;7.006;2022-09-14T03:13:02;38.33;;;29.10;;
10661;SDS011;5379;51.034;7.006;2022-09-14T03:15:29;32.80;;;28.00;;
10661;SDS011;5379;51.034;7.006;2022-09-14T03:17:56;32.53;;;27.33;;
10661;SDS011;5379;51.034;7.006;2022-09-14T03:20:25;36.70;;;27.63;;
10661;SDS011;5379;51.034;7.006;2022-09-14T03:22:53;34.17;;;26.17;;
10661;SDS011;5379;51.034;7.006;2022-09-14T03:25:20;29.53;;;22.43;;
10661;SDS011;5379;51.034;7.006;2022-09-14T03:27:48;29.17;;;22.50;;
10661;SDS011;5379;51.034;7.006;2022-09-14T03:30:16;26.70;;;23.53;;
10661;SDS011;5379;51.034;7.006;2022-09-14T03:32:43;23.67;;;21.27;;
10661;SDS011;5379;51.034;7.006;2022-09-14T03:35:11;24.17;;;20.40;;
10661;SDS011;5379;51.034;7.006;2022-09-14T03:37:40;27.57;;;22.50;;
10661;SDS011;5379;51.034;7.006;2022-09-14T03:40:09;31.67;;;23.10;;
10661;SDS011;5379;51.034;7.006;2022-09-14T03:42:40;25.03;;;21.83;;
10661;SDS011;5379;51.034;7.006;2022-09-14T03:45:08;28.17;;;21.13;;
10661;SDS011;5379;51.034;7.006;2022-09-14T03:47:36;25.53;;;21.17;;
10661;SDS011;5379;51.034;7.006;2022-09-14T03:50:03;22.70;;;20.23;;
10661;SDS011;5379;51.034;7.006;2022-09-14T03:52:31;25.67;;;21.30;;
10661;SDS011;5379;51.034;7.006;2022-09-14T03:55:00;25.17;;;20.27;;
10661;SDS011;5379;51.034;7.006;2022-09-14T03:57:27;22.33;;;19.33;;
10661;SDS011;5379;51.034;7.006;2022-09-14T03:59:54;25.50;;;22.37;;
10661;SDS011;5379;51.034;7.006;2022-09-14T04:02:21;25.53;;;22.83;;
10661;SDS011;5379;51.034;7.006;2022-09-14T04:04:48;19.07;;;16.80;;
10661;SDS011;5379;51.034;7.006;2022-09-14T04:07:15;19.03;;;16.80;;
10661;SDS011;5379;51.034;7.006;2022-09-14T04:09:42;18.63;;;15.43;;
10661;SDS011;5379;51.034;7.006;2022-09-14T04:12:10;17.83;;;13.17;;
10661;SDS011;5379;51.034;7.006;2022-09-14T04:14:37;14.93;;;12.60;;
10661;SDS011;5379;51.034;7.006;2022-09-14T04:17:04;17.10;;;12.27;;
10661;SDS011;5379;51.034;7.006;2022-09-14T04:19:31;12.40;;;11.20;;
10661;SDS011;5379;51.034;7.006;2022-09-14T04:22:01;12.40;;;10.37;;
10661;SDS011;5379;51.034;7.006;2022-09-14T04:24:29;13.80;;;9.33;;
10661;SDS011;5379;51.034;7.006;2022-09-14T04:26:56;12.97;;;10.47;;
10661;SDS011;5379;51.034;7.006;2022-09-14T04:29:25;10.63;;;9.43;;
10661;SDS011;5379;51.034;7.006;2022-09-14T04:31:54;10.10;;;9.10;;
10661;SDS011;5379;51.034;7.006;2022-09-14T04:34:22;9.83;;;8.83;;
10661;SDS011;5379;51.034;7.006;2022-09-14T04:36:49;9.40;;;8.37;;
10661;SDS011;5379;51.034;7.006;2022-09-14T04:39:16;11.07;;;10.07;;
10661;SDS011;5379;51.034;7.006;2022-09-14T04:41:44;12.07;;;9.93;;
10661;SDS011;5379;51.034;7.006;2022-09-14T04:44:11;14.17;;;10.50;;
10661;SDS011;5379;51.034;7.006;2022-09-14T04:46:39;21.90;;;10.87;;
10661;SDS011;5379;51.034;7.006;2022-09-14T04:49:07;14.77;;;9.53;;
10661;SDS011;5379;51.034;7.006;2022-09-14T04:51:35;14.83;;;10.20;;
10661;SDS011;5379;51.034;7.006;2022-09-14T04:54:03;12.33;;;9.83;;
10661;SDS011;5379;51.034;7.006;2022-09-14T04:56:32;11.20;;;9.90;;
10661;SDS011;5379;51.034;7.006;2022-09-14T04:59:01;9.77;;;8.87;;
10661;SDS011;5379;51.034;7.006;2022-09-14T05:01:30;14.57;;;9.53;;
10661;SDS011;5379;51.034;7.006;2022-09-14T05:04:00;11.33;;;9.60;;
10661;SDS011;5379;51.034;7.006;2022-09-14T05:06:28;11.47;;;9.80;;
10661;SDS011;5379;51.034;7.006;2022-09-14T05:08:56;12.43;;;10.83;;
10661;SDS011;5379;51.034;7.006;2022-09-14T05:11:25;12.77;;;10.50;;
10661;SDS011;5379;51.034;7.006;2022-09-14T05:13:54;17.00;;;11.00;;
10661;SDS011;5379;51.034;7.006;2022-09-14T05:16:22;12.87;;;11.07;;
10661;SDS011;5379;51.034;7.006;2022-09-14T05:18:53;13.63;;;11.33;;
10661;SDS011;5379;51.034;7.006;2022-09-14T05:21:22;11.90;;;10.63;;
10661;SDS011;5379;51.034;7.006;2022-09-14T05:23:53;19.60;;;11.70;;
10661;SDS011;5379;51.034;7.006;2022-09-14T05:26:21;10.40;;;9.40;;
10661;SDS011;5379;51.034;7.006;2022-09-14T05:28:48;15.10;;;12.17;;
10661;SDS011;5379;51.034;7.006;2022-09-14T05:31:17;14.63;;;10.87;;
10661;SDS011;5379;51.034;7.006;2022-09-14T05:33:44;16.77;;;11.37;;
10661;SDS011;5379;51.034;7.006;2022-09-14T05:36:12;12.70;;;10.73;;
10661;SDS011;5379;51.034;7.006;2022-09-14T05:38:40;15.23;;;10.47;;
10661;SDS011;5379;51.034;7.006;2022-09-14T05:41:09;10.87;;;9.03;;
10661;SDS011;5379;51.034;7.006;2022-09-14T05:43:37;10.40;;;9.10;;
10661;SDS011;5379;51.034;7.006;2022-09-14T05:46:05;10.10;;;9.10;;
10661;SDS011;5379;51.034;7.006;2022-09-14T05:48:33;11.70;;;9.53;;
10661;SDS011;5379;51.034;7.006;2022-09-14T05:51:02;8.17;;;7.40;;
10661;SDS011;5379;51.034;7.006;2022-09-14T05:53:31;9.60;;;8.40;;
10661;SDS011;5379;51.034;7.006;2022-09-14T05:56:01;12.17;;;8.47;;
10661;SDS011;5379;51.034;7.006;2022-09-14T05:58:29;15.30;;;8.03;;
10661;SDS011;5379;51.034;7.006;2022-09-14T06:00:56;9.40;;;7.77;;
10661;SDS011;5379;51.034;7.006;2022-09-14T06:03:23;9.90;;;7.40;;
10661;SDS011;5379;51.034;7.006;2022-09-14T06:05:50;13.43;;;8.13;;
10661;SDS011;5379;51.034;7.006;2022-09-14T06:08:19;11.50;;;7.23;;
10661;SDS011;5379;51.034;7.006;2022-09-14T06:10:47;8.47;;;7.10;;
10661;SDS011;5379;51.034;7.006;2022-09-14T06:13:15;7.37;;;6.50;;
10661;SDS011;5379;51.034;7.006;2022-09-14T06:15:42;8.03;;;7.17;;
10661;SDS011;5379;51.034;7.006;2022-09-14T06:18:09;10.80;;;6.80;;
10661;SDS011;5379;51.034;7.006;2022-09-14T06:20:36;9.43;;;6.10;;
10661;SDS011;5379;51.034;7.006;2022-09-14T06:23:03;9.47;;;6.87;;
10661;SDS011;5379;51.034;7.006;2022-09-14T06:25:30;7.90;;;6.17;;
10661;SDS011;5379;51.034;7.006;2022-09-14T06:27:57;11.03;;;6.27;;
10661;SDS011;5379;51.034;7.006;2022-09-14T06:30:25;5.43;;;4.93;;
10661;SDS011;5379;51.034;7.006;2022-09-14T06:32:52;16.03;;;6.10;;
10661;SDS011;5379;51.034;7.006;2022-09-14T06:35:19;7.47;;;4.87;;
10661;SDS011;5379;51.034;7.006;2022-09-14T06:37:46;5.40;;;4.97;;
10661;SDS011;5379;51.034;7.006;2022-09-14T06:40:13;9.47;;;5.00;;
10661;SDS011;5379;51.034;7.006;2022-09-14T06:42:40;6.00;;;4.77;;
10661;SDS011;5379;51.034;7.006;2022-09-14T06:45:07;5.00;;;4.60;;
10661;SDS011;5379;51.034;7.006;2022-09-14T06:47:36;6.20;;;4.07;;
10661;SDS011;5379;51.034;7.006;2022-09-14T06:50:03;6.83;;;5.10;;
10661;SDS011;5379;51.034;7.006;2022-09-14T06:52:31;5.13;;;4.73;;
10661;SDS011;5379;51.034;7.006;2022-09-14T06:54:58;4.90;;;4.50;;
10661;SDS011;5379;51.034;7.006;2022-09-14T06:57:25;10.33;;;4.47;;
10661;SDS011;5379;51.034;7.006;2022-09-14T06:59:52;5.40;;;4.47;;
10661;SDS011;5379;51.034;7.006;2022-09-14T07:02:19;7.17;;;4.83;;
10661;SDS011;5379;51.034;7.006;2022-09-14T07:04:47;5.37;;;4.87;;
10661;SDS011;5379;51.034;7.006;2022-09-14T07:07:15;4.20;;;3.90;;
10661;SDS011;5379;51.034;7.006;2022-09-14T07:09:42;5.20;;;4.33;;
10661;SDS011;5379;51.034;7.006;2022-09-14T07:12:09;5.43;;;4.93;;
10661;SDS011;5379;51.034;7.006;2022-09-14T07:14:36;7.03;;;5.30;;
10661;SDS011;5379;51.034;7.006;2022-09-14T07:17:04;4.83;;;4.33;;
10661;SDS011;5379;51.034;7.006;2022-09-14T07:19:31;4.60;;;4.30;;
10661;SDS011;5379;51.034;7.006;2022-09-14T07:22:00;6.37;;;4.97;;
10661;SDS011;5379;51.034;7.006;2022-09-14T07:24:27;4.87;;;4.43;;
10661;SDS011;5379;51.034;7.006;2022-09-14T07:26:54;6.23;;;4.67;;
10661;SDS011;5379;51.034;7.006;2022-09-14T07:29:21;4.73;;;4.33;;
10661;SDS011;5379;51.034;7.006;2022-09-14T07:31:49;5.17;;;4.63;;
10661;SDS011;5379;51.034;7.006;2022-09-14T07:34:18;5.83;;;5.10;;
10661;SDS011;5379;51.034;7.006;2022-09-14T07:36:45;5.90;;;5.40;;
10661;SDS011;5379;51.034;7.006;2022-09-14T07:39:14;6.30;;;5.47;;
10661;SDS011;5379;51.034;7.006;2022-09-14T07:41:42;7.10;;;5.97;;
10661;SDS011;5379;51.034;7.006;2022-09-14T07:44:12;5.10;;;4.63;;
10661;SDS011;5379;51.034;7.006;2022-09-14T07:46:41;7.80;;;4.57;;
10661;SDS011;5379;51.034;7.006;2022-09-14T07:49:09;5.10;;;4.30;;
10661;SDS011;5379;51.034;7.006;2022-09-14T07:51:38;5.03;;;3.93;;
10661;SDS011;5379;51.034;7.006;2022-09-14T07:54:06;4.50;;;3.97;;
10661;SDS011;5379;51.034;7.006;2022-09-14T07:56:37;4.30;;;3.90;;
10661;SDS011;5379;51.034;7.006;2022-09-14T07:59:04;5.13;;;4.03;;
10661;SDS011;5379;51.034;7.006;2022-09-14T08:01:32;4.00;;;3.60;;
10661;SDS011;5379;51.034;7.006;2022-09-14T08:03:59;3.77;;;3.20;;
10661;SDS011;5379;51.034;7.006;2022-09-14T08:06:28;3.77;;;2.80;;
10661;SDS011;5379;51.034;7.006;2022-09-14T08:08:55;3.00;;;2.70;;
10661;SDS011;5379;51.034;7.006;2022-09-14T08:11:24;2.93;;;2.67;;
10661;SDS011;5379;51.034;7.006;2022-09-14T08:13:54;3.13;;;2.90;;
10661;SDS011;5379;51.034;7.006;2022-09-14T08:16:22;3.03;;;2.83;;
10661;SDS011;5379;51.034;7.006;2022-09-14T08:18:54;6.80;;;2.50;;
10661;SDS011;5379;51.034;7.006;2022-09-14T08:21:22;6.20;;;3.17;;
10661;SDS011;5379;51.034;7.006;2022-09-14T08:23:49;5.37;;;2.97;;
10661;SDS011;5379;51.034;7.006;2022-09-14T08:26:17;4.40;;;3.00;;
10661;SDS011;5379;51.034;7.006;2022-09-14T08:28:46;6.30;;;2.90;;
10661;SDS011;5379;51.034;7.006;2022-09-14T08:31:16;7.37;;;3.17;;
10661;SDS011;5379;51.034;7.006;2022-09-14T08:33:45;5.33;;;3.00;;
10661;SDS011;5379;51.034;7.006;2022-09-14T08:36:14;4.63;;;2.77;;
10661;SDS011;5379;51.034;7.006;2022-09-14T08:38:42;4.97;;;2.90;;
10661;SDS011;5379;51.034;7.006;2022-09-14T08:41:11;2.67;;;2.47;;
10661;SDS011;5379;51.034;7.006;2022-09-14T08:43:50;2.97;;;2.77;;
10661;SDS011;5379;51.034;7.006;2022-09-14T08:46:25;4.63;;;3.10;;
10661;SDS011;5379;51.034;7.006;2022-09-14T08:48:55;6.33;;;3.00;;
10661;SDS011;5379;51.034;7.006;2022-09-14T08:51:24;3.27;;;2.97;;
10661;SDS011;5379;51.034;7.006;2022-09-14T08:53:52;3.23;;;2.40;;
10661;SDS011;5379;51.034;7.006;2022-09-14T08:56:22;9.10;;;2.77;;
10661;SDS011;5379;51.034;7.006;2022-09-14T08:58:54;6.33;;;3.40;;
10661;SDS011;5379;51.034;7.006;2022-09-14T09:01:45;3.60;;;2.97;;
10661;SDS011;5379;51.034;7.006;2022-09-14T09:04:22;4.47;;;3.07;;
10661;SDS011;5379;51.034;7.006;2022-09-14T09:07:00;2.70;;;2.50;;
10661;SDS011;5379;51.034;7.006;2022-09-14T09:09:36;7.27;;;3.20;;
10661;SDS011;5379;51.034;7.006;2022-09-14T09:12:08;3.40;;;3.10;;
10661;SDS011;5379;51.034;7.006;2022-09-14T09:14:41;3.20;;;2.90;;
10661;SDS011;5379;51.034;7.006;2022-09-14T09:17:14;3.60;;;2.60;;
10661;SDS011;5379;51.034;7.006;2022-09-14T09:19:50;4.47;;;2.83;;
10661;SDS011;5379;51.034;7.006;2022-09-14T09:22:29;4.23;;;2.97;;
10661;SDS011;5379;51.034;7.006;2022-09-14T09:25:02;7.47;;;6.77;;
10661;SDS011;5379;51.034;7.006;2022-09-14T09:27:32;5.43;;;2.93;;
10661;SDS011;5379;51.034;7.006;2022-09-14T09:30:00;3.20;;;3.00;;
10661;SDS011;5379;51.034;7.006;2022-09-14T09:32:28;4.80;;;3.30;;
10661;SDS011;5379;51.034;7.006;2022-09-14T09:34:55;3.47;;;3.17;;
10661;SDS011;5379;51.034;7.006;2022-09-14T09:37:23;5.73;;;4.43;;
10661;SDS011;5379;51.034;7.006;2022-09-14T09:39:50;3.97;;;2.83;;
10661;SDS011;5379;51.034;7.006;2022-09-14T09:42:19;10.50;;;3.17;;
10661;SDS011;5379;51.034;7.006;2022-09-14T09:44:54;5.23;;;3.27;;
10661;SDS011;5379;51.034;7.006;2022-09-14T09:47:24;3.10;;;2.90;;
10661;SDS011;5379;51.034;7.006;2022-09-14T09:50:01;6.80;;;3.00;;
10661;SDS011;5379;51.034;7.006;2022-09-14T09:52:30;4.00;;;3.43;;
10661;SDS011;5379;51.034;7.006;2022-09-14T09:54:58;3.33;;;3.00;;
10661;SDS011;5379;51.034;7.006;2022-09-14T09:57:28;4.27;;;2.80;;
10661;SDS011;5379;51.034;7.006;2022-09-14T10:00:13;5.43;;;2.70;;
10661;SDS011;5379;51.034;7.006;2022-09-14T10:02:45;3.80;;;2.83;;
10661;SDS011;5379;51.034;7.006;2022-09-14T10:05:24;3.87;;;2.70;;
10661;SDS011;5379;51.034;7.006;2022-09-14T10:07:53;3.57;;;3.27;;
10661;SDS011;5379;51.034;7.006;2022-09-14T10:10:25;3.47;;;3.17;;
10661;SDS011;5379;51.034;7.006;2022-09-14T10:13:14;3.50;;;3.20;;
10661;SDS011;5379;51.034;7.006;2022-09-14T10:15:47;5.20;;;3.40;;
10661;SDS011;5379;51.034;7.006;2022-09-14T10:18:14;3.17;;;2.97;;
10661;SDS011;5379;51.034;7.006;2022-09-14T10:21:02;2.93;;;2.73;;
10661;SDS011;5379;51.034;7.006;2022-09-14T10:23:33;3.30;;;3.00;;
10661;SDS011;5379;51.034;7.006;2022-09-14T10:28:50;3.10;;;2.90;;
10661;SDS011;5379;51.034;7.006;2022-09-14T10:31:20;2.80;;;2.53;;
10661;SDS011;5379;51.034;7.006;2022-09-14T10:33:52;2.63;;;2.43;;
10661;SDS011;5379;51.034;7.006;2022-09-14T10:36:25;2.83;;;2.60;;
10661;SDS011;5379;51.034;7.006;2022-09-14T10:38:55;2.33;;;2.20;;
10661;SDS011;5379;51.034;7.006;2022-09-14T10:41:28;3.33;;;2.93;;
10661;SDS011;5379;51.034;7.006;2022-09-14T10:47:09;3.03;;;2.73;;
10661;SDS011;5379;51.034;7.006;2022-09-14T10:49:59;2.83;;;2.63;;
10661;SDS011;5379;51.034;7.006;2022-09-14T10:52:38;3.57;;;2.27;;
10661;SDS011;5379;51.034;7.006;2022-09-14T10:55:22;2.57;;;2.37;;
10661;SDS011;5379;51.034;7.006;2022-09-14T10:58:00;12.57;;;7.07;;
10661;SDS011;5379;51.034;7.006;2022-09-14T11:00:40;3.20;;;3.00;;
10661;SDS011;5379;51.034;7.006;2022-09-14T11:03:26;3.03;;;2.70;;
10661;SDS011;5379;51.034;7.006;2022-09-14T11:06:07;2.43;;;2.23;;
10661;SDS011;5379;51.034;7.006;2022-09-14T11:08:42;1.90;;;1.80;;
10661;SDS011;5379;51.034;7.006;2022-09-14T11:11:19;2.90;;;2.70;;
10661;SDS011;5379;51.034;7.006;2022-09-14T11:14:02;2.30;;;2.20;;
10661;SDS011;5379;51.034;7.006;2022-09-14T11:16:49;2.40;;;2.20;;
10661;SDS011;5379;51.034;7.006;2022-09-14T11:19:43;2.10;;;2.00;;
10661;SDS011;5379;51.034;7.006;2022-09-14T11:22:19;2.07;;;1.97;;
10661;SDS011;5379;51.034;7.006;2022-09-14T11:24:54;2.50;;;2.30;;
10661;SDS011;5379;51.034;7.006;2022-09-14T11:27:25;7.57;;;2.50;;
10661;SDS011;5379;51.034;7.006;2022-09-14T11:30:02;3.50;;;3.07;;
10661;SDS011;5379;51.034;7.006;2022-09-14T11:32:37;2.27;;;1.77;;
10661;SDS011;5379;51.034;7.006;2022-09-14T11:35:13;2.40;;;2.07;;
10661;SDS011;5379;51.034;7.006;2022-09-14T11:37:47;2.20;;;2.10;;
10661;SDS011;5379;51.034;7.006;2022-09-14T11:40:21;2.13;;;2.03;;
10661;SDS011;5379;51.034;7.006;2022-09-14T11:42:54;2.60;;;2.40;;
10661;SDS011;5379;51.034;7.006;2022-09-14T11:45:26;3.83;;;1.83;;
10661;SDS011;5379;51.034;7.006;2022-09-14T11:47:59;4.50;;;2.23;;
10661;SDS011;5379;51.034;7.006;2022-09-14T11:50:33;2.20;;;2.10;;
10661;SDS011;5379;51.034;7.006;2022-09-14T11:53:08;6.00;;;3.17;;
10661;SDS011;5379;51.034;7.006;2022-09-14T11:55:39;2.30;;;1.87;;
10661;SDS011;5379;51.034;7.006;2022-09-14T11:58:16;2.30;;;2.20;;
10661;SDS011;5379;51.034;7.006;2022-09-14T12:03:51;2.20;;;2.00;;
10661;SDS011;5379;51.034;7.006;2022-09-14T12:09:36;2.50;;;2.30;;
10661;SDS011;5379;51.034;7.006;2022-09-14T12:20:45;4.70;;;2.23;;
10661;SDS011;5379;51.034;7.006;2022-09-14T12:23:21;2.50;;;2.30;;
10661;SDS011;5379;51.034;7.006;2022-09-14T12:25:52;1.97;;;1.87;;
10661;SDS011;5379;51.034;7.006;2022-09-14T12:28:40;1.90;;;1.80;;
10661;SDS011;5379;51.034;7.006;2022-09-14T12:34:13;2.67;;;2.27;;
10661;SDS011;5379;51.034;7.006;2022-09-14T12:37:02;6.10;;;1.83;;
10661;SDS011;5379;51.034;7.006;2022-09-14T12:42:52;1.40;;;1.40;;
10661;SDS011;5379;51.034;7.006;2022-09-14T12:51:24;1.80;;;1.70;;
10661;SDS011;5379;51.034;7.006;2022-09-14T12:54:01;2.00;;;1.90;;
10661;SDS011;5379;51.034;7.006;2022-09-14T12:56:36;2.17;;;1.73;;
10661;SDS011;5379;51.034;7.006;2022-09-14T12:59:08;1.93;;;1.70;;
10661;SDS011;5379;51.034;7.006;2022-09-14T13:01:43;1.50;;;1.50;;
10661;SDS011;5379;51.034;7.006;2022-09-14T13:04:19;2.20;;;2.00;;
10661;SDS011;5379;51.034;7.006;2022-09-14T13:06:50;1.97;;;1.70;;
10661;SDS011;5379;51.034;7.006;2022-09-14T13:09:19;1.67;;;1.57;;
10661;SDS011;5379;51.034;7.006;2022-09-14T13:11:48;3.03;;;1.93;;
10661;SDS011;5379;51.034;7.006;2022-09-14T13:14:19;1.50;;;1.40;;
10661;SDS011;5379;51.034;7.006;2022-09-14T13:16:50;2.40;;;2.20;;
10661;SDS011;5379;51.034;7.006;2022-09-14T13:19:20;1.60;;;1.50;;
10661;SDS011;5379;51.034;7.006;2022-09-14T13:21:49;1.70;;;1.60;;
10661;SDS011;5379;51.034;7.006;2022-09-14T13:24:18;2.37;;;1.80;;
10661;SDS011;5379;51.034;7.006;2022-09-14T13:26:57;1.27;;;1.17;;
10661;SDS011;5379;51.034;7.006;2022-09-14T13:29:26;2.40;;;1.50;;
10661;SDS011;5379;51.034;7.006;2022-09-14T13:31:56;1.57;;;1.40;;
10661;SDS011;5379;51.034;7.006;2022-09-14T13:34:25;1.33;;;1.33;;
10661;SDS011;5379;51.034;7.006;2022-09-14T13:36:55;1.30;;;1.20;;
10661;SDS011;5379;51.034;7.006;2022-09-14T13:39:23;1.57;;;1.47;;
10661;SDS011;5379;51.034;7.006;2022-09-14T13:41:53;1.70;;;1.60;;
10661;SDS011;5379;51.034;7.006;2022-09-14T13:44:22;1.13;;;1.13;;
10661;SDS011;5379;51.034;7.006;2022-09-14T13:46:51;3.40;;;1.73;;
10661;SDS011;5379;51.034;7.006;2022-09-14T13:49:21;13.20;;;2.83;;
10661;SDS011;5379;51.034;7.006;2022-09-14T13:51:48;1.70;;;1.60;;
10661;SDS011;5379;51.034;7.006;2022-09-14T13:54:16;2.47;;;2.03;;
10661;SDS011;5379;51.034;7.006;2022-09-14T13:59:36;1.63;;;1.53;;
10661;SDS011;5379;51.034;7.006;2022-09-14T14:02:32;12.40;;;3.23;;
10661;SDS011;5379;51.034;7.006;2022-09-14T14:05:02;6.67;;;2.47;;
10661;SDS011;5379;51.034;7.006;2022-09-14T14:07:31;1.67;;;1.57;;
10661;SDS011;5379;51.034;7.006;2022-09-14T14:10:00;1.97;;;1.77;;
10661;SDS011;5379;51.034;7.006;2022-09-14T14:12:29;3.00;;;2.37;;
10661;SDS011;5379;51.034;7.006;2022-09-14T14:14:58;1.73;;;1.63;;
10661;SDS011;5379;51.034;7.006;2022-09-14T14:17:30;3.53;;;1.50;;
10661;SDS011;5379;51.034;7.006;2022-09-14T14:23:02;1.60;;;1.60;;
10661;SDS011;5379;51.034;7.006;2022-09-14T14:25:45;1.70;;;1.70;;
10661;SDS011;5379;51.034;7.006;2022-09-14T14:28:17;4.00;;;1.97;;
10661;SDS011;5379;51.034;7.006;2022-09-14T14:30:47;1.77;;;1.67;;
10661;SDS011;5379;51.034;7.006;2022-09-14T14:33:15;2.83;;;2.60;;
10661;SDS011;5379;51.034;7.006;2022-09-14T14:35:45;1.93;;;1.83;;
10661;SDS011;5379;51.034;7.006;2022-09-14T14:38:13;2.30;;;2.10;;
10661;SDS011;5379;51.034;7.006;2022-09-14T14:40:41;2.77;;;2.50;;
10661;SDS011;5379;51.034;7.006;2022-09-14T14:43:09;2.40;;;2.30;;
10661;SDS011;5379;51.034;7.006;2022-09-14T14:45:40;3.00;;;2.80;;
10661;SDS011;5379;51.034;7.006;2022-09-14T14:48:08;2.73;;;2.53;;
10661;SDS011;5379;51.034;7.006;2022-09-14T14:50:36;2.53;;;2.33;;
10661;SDS011;5379;51.034;7.006;2022-09-14T14:53:05;5.47;;;2.30;;
10661;SDS011;5379;51.034;7.006;2022-09-14T14:55:32;2.73;;;2.53;;
10661;SDS011;5379;51.034;7.006;2022-09-14T14:58:02;3.50;;;3.20;;
10661;SDS011;5379;51.034;7.006;2022-09-14T15:00:31;3.37;;;3.07;;
10661;SDS011;5379;51.034;7.006;2022-09-14T15:03:02;3.60;;;2.80;;
10661;SDS011;5379;51.034;7.006;2022-09-14T15:05:29;3.00;;;2.80;;
10661;SDS011;5379;51.034;7.006;2022-09-14T15:07:57;2.40;;;2.30;;
10661;SDS011;5379;51.034;7.006;2022-09-14T15:10:26;3.07;;;2.80;;
10661;SDS011;5379;51.034;7.006;2022-09-14T15:12:54;3.20;;;3.00;;
10661;SDS011;5379;51.034;7.006;2022-09-14T15:15:22;3.27;;;2.63;;
10661;SDS011;5379;51.034;7.006;2022-09-14T15:17:50;2.77;;;2.67;;
10661;SDS011;5379;51.034;7.006;2022-09-14T15:20:18;3.20;;;3.00;;
10661;SDS011;5379;51.034;7.006;2022-09-14T15:22:47;3.13;;;2.83;;
10661;SDS011;5379;51.034;7.006;2022-09-14T15:25:14;3.30;;;3.00;;
10661;SDS011;5379;51.034;7.006;2022-09-14T15:27:44;3.37;;;2.47;;
10661;SDS011;5379;51.034;7.006;2022-09-14T15:30:11;4.73;;;3.60;;
10661;SDS011;5379;51.034;7.006;2022-09-14T15:32:39;2.97;;;2.77;;
10661;SDS011;5379;51.034;7.006;2022-09-14T15:35:08;3.53;;;2.40;;
10661;SDS011;5379;51.034;7.006;2022-09-14T15:37:37;2.60;;;2.40;;
10661;SDS011;5379;51.034;7.006;2022-09-14T15:40:05;2.60;;;2.40;;
10661;SDS011;5379;51.034;7.006;2022-09-14T15:42:32;2.60;;;2.40;;
10661;SDS011;5379;51.034;7.006;2022-09-14T15:45:01;2.67;;;2.47;;
10661;SDS011;5379;51.034;7.006;2022-09-14T15:47:28;2.67;;;1.97;;
10661;SDS011;5379;51.034;7.006;2022-09-14T15:49:55;3.80;;;3.50;;
10661;SDS011;5379;51.034;7.006;2022-09-14T15:52:22;2.70;;;2.50;;
10661;SDS011;5379;51.034;7.006;2022-09-14T15:54:49;2.57;;;2.40;;